Terminal Aerodrome Forecast
Issued by NWS Houston/Galveston, TX

Home | Current Version | Previous Version | Text Only | Print | Product List | Glossary On
Versions: 1 2 3 4 5 6 7 8 9 10 11 12 13 14 15 16 17 18 19 20 21 22 23 24 25 26 27 28 29 30 31 32 33 34
730
FTUS44 KHGX 131517 AAA
TAFGLS
TAF AMD
KGLS 131517Z 1315/1412 VRB04KT P6SM SCT025 SCT035
     FM131800 22007KT P6SM SCT025
     FM132000 23009KT P6SM FEW025 SCT050
     FM140700 31007KT P6SM SKC=

USA.gov is the U.S. government's official web portal to all federal, state and local government web resources and services.